sensor_id;sensor_type;location;lat;lon;timestamp;P1;durP1;ratioP1;P2;durP2;ratioP2
17658;SDS011;8948;51.534;8.262;2023-04-21T00:03:42;37.90;;;23.53;;
17658;SDS011;8948;51.534;8.262;2023-04-21T00:08:43;41.73;;;23.23;;
17658;SDS011;8948;51.534;8.262;2023-04-21T00:13:44;40.83;;;23.77;;
17658;SDS011;8948;51.534;8.262;2023-04-21T00:18:44;37.63;;;23.23;;
17658;SDS011;8948;51.534;8.262;2023-04-21T00:23:46;39.77;;;23.93;;
17658;SDS011;8948;51.534;8.262;2023-04-21T00:28:48;39.47;;;23.30;;
17658;SDS011;8948;51.534;8.262;2023-04-21T00:33:49;38.23;;;23.17;;
17658;SDS011;8948;51.534;8.262;2023-04-21T00:38:50;42.80;;;23.70;;
17658;SDS011;8948;51.534;8.262;2023-04-21T00:44:06;40.20;;;23.60;;
17658;SDS011;8948;51.534;8.262;2023-04-21T00:49:07;40.37;;;22.43;;
17658;SDS011;8948;51.534;8.262;2023-04-21T00:54:08;38.50;;;21.77;;
17658;SDS011;8948;51.534;8.262;2023-04-21T00:59:10;39.80;;;24.33;;
17658;SDS011;8948;51.534;8.262;2023-04-21T01:04:11;40.43;;;22.50;;
17658;SDS011;8948;51.534;8.262;2023-04-21T01:09:12;41.90;;;23.93;;
17658;SDS011;8948;51.534;8.262;2023-04-21T01:14:13;44.87;;;24.77;;
17658;SDS011;8948;51.534;8.262;2023-04-21T01:19:14;39.63;;;24.17;;
17658;SDS011;8948;51.534;8.262;2023-04-21T01:24:15;41.10;;;24.67;;
17658;SDS011;8948;51.534;8.262;2023-04-21T01:29:16;38.70;;;24.13;;
17658;SDS011;8948;51.534;8.262;2023-04-21T01:34:16;40.10;;;24.20;;
17658;SDS011;8948;51.534;8.262;2023-04-21T01:39:17;40.10;;;23.17;;
17658;SDS011;8948;51.534;8.262;2023-04-21T01:44:18;43.17;;;24.63;;
17658;SDS011;8948;51.534;8.262;2023-04-21T01:49:18;39.53;;;24.43;;
17658;SDS011;8948;51.534;8.262;2023-04-21T01:54:19;46.90;;;25.57;;
17658;SDS011;8948;51.534;8.262;2023-04-21T01:59:20;40.83;;;24.17;;
17658;SDS011;8948;51.534;8.262;2023-04-21T02:04:20;45.70;;;26.40;;
17658;SDS011;8948;51.534;8.262;2023-04-21T02:09:21;40.47;;;24.90;;
17658;SDS011;8948;51.534;8.262;2023-04-21T02:14:22;43.00;;;25.63;;
17658;SDS011;8948;51.534;8.262;2023-04-21T02:19:26;40.43;;;24.57;;
17658;SDS011;8948;51.534;8.262;2023-04-21T02:24:26;41.60;;;25.20;;
17658;SDS011;8948;51.534;8.262;2023-04-21T02:29:27;40.10;;;23.43;;
17658;SDS011;8948;51.534;8.262;2023-04-21T02:34:28;38.80;;;24.07;;
17658;SDS011;8948;51.534;8.262;2023-04-21T02:39:28;40.83;;;25.03;;
17658;SDS011;8948;51.534;8.262;2023-04-21T02:44:29;43.73;;;24.67;;
17658;SDS011;8948;51.534;8.262;2023-04-21T02:49:30;41.10;;;24.43;;
17658;SDS011;8948;51.534;8.262;2023-04-21T02:54:30;39.77;;;23.90;;
17658;SDS011;8948;51.534;8.262;2023-04-21T02:59:31;38.93;;;23.70;;
17658;SDS011;8948;51.534;8.262;2023-04-21T03:04:32;35.70;;;22.97;;
17658;SDS011;8948;51.534;8.262;2023-04-21T03:09:32;40.07;;;24.30;;
17658;SDS011;8948;51.534;8.262;2023-04-21T03:14:34;36.30;;;23.13;;
17658;SDS011;8948;51.534;8.262;2023-04-21T03:19:35;45.27;;;25.27;;
17658;SDS011;8948;51.534;8.262;2023-04-21T03:24:35;43.80;;;24.93;;
17658;SDS011;8948;51.534;8.262;2023-04-21T03:29:36;38.90;;;24.20;;
17658;SDS011;8948;51.534;8.262;2023-04-21T03:34:37;38.17;;;23.33;;
17658;SDS011;8948;51.534;8.262;2023-04-21T03:39:37;40.83;;;24.80;;
17658;SDS011;8948;51.534;8.262;2023-04-21T03:44:38;35.20;;;23.00;;
17658;SDS011;8948;51.534;8.262;2023-04-21T03:49:38;41.00;;;23.93;;
17658;SDS011;8948;51.534;8.262;2023-04-21T03:54:39;40.10;;;24.60;;
17658;SDS011;8948;51.534;8.262;2023-04-21T03:59:40;41.97;;;24.93;;
17658;SDS011;8948;51.534;8.262;2023-04-21T04:04:40;43.00;;;24.67;;
17658;SDS011;8948;51.534;8.262;2023-04-21T04:09:41;36.20;;;23.43;;
17658;SDS011;8948;51.534;8.262;2023-04-21T04:14:42;38.83;;;24.03;;
17658;SDS011;8948;51.534;8.262;2023-04-21T04:19:43;38.40;;;24.33;;
17658;SDS011;8948;51.534;8.262;2023-04-21T04:24:43;40.17;;;23.23;;
17658;SDS011;8948;51.534;8.262;2023-04-21T04:29:44;24.60;;;15.63;;
17658;SDS011;8948;51.534;8.262;2023-04-21T04:34:45;37.73;;;21.93;;
17658;SDS011;8948;51.534;8.262;2023-04-21T04:39:46;25.73;;;16.77;;
17658;SDS011;8948;51.534;8.262;2023-04-21T04:44:46;38.47;;;22.50;;
17658;SDS011;8948;51.534;8.262;2023-04-21T04:49:47;38.23;;;21.60;;
17658;SDS011;8948;51.534;8.262;2023-04-21T04:54:47;43.17;;;23.70;;
17658;SDS011;8948;51.534;8.262;2023-04-21T04:59:48;41.93;;;23.53;;
17658;SDS011;8948;51.534;8.262;2023-04-21T05:04:54;38.80;;;24.07;;
17658;SDS011;8948;51.534;8.262;2023-04-21T05:09:55;41.70;;;24.97;;
17658;SDS011;8948;51.534;8.262;2023-04-21T05:14:55;42.10;;;23.17;;
17658;SDS011;8948;51.534;8.262;2023-04-21T05:19:56;41.17;;;23.87;;
17658;SDS011;8948;51.534;8.262;2023-04-21T05:24:56;39.57;;;23.57;;
17658;SDS011;8948;51.534;8.262;2023-04-21T05:29:57;38.27;;;23.40;;
17658;SDS011;8948;51.534;8.262;2023-04-21T05:34:58;37.60;;;22.63;;
17658;SDS011;8948;51.534;8.262;2023-04-21T05:39:59;36.43;;;23.37;;
17658;SDS011;8948;51.534;8.262;2023-04-21T05:45:00;37.70;;;23.47;;
17658;SDS011;8948;51.534;8.262;2023-04-21T05:50:00;35.80;;;21.93;;
17658;SDS011;8948;51.534;8.262;2023-04-21T05:55:01;33.33;;;22.23;;
17658;SDS011;8948;51.534;8.262;2023-04-21T06:00:02;35.37;;;23.23;;
17658;SDS011;8948;51.534;8.262;2023-04-21T06:05:03;34.90;;;21.97;;
17658;SDS011;8948;51.534;8.262;2023-04-21T06:10:04;36.63;;;22.53;;
17658;SDS011;8948;51.534;8.262;2023-04-21T06:15:05;33.93;;;22.27;;
17658;SDS011;8948;51.534;8.262;2023-04-21T06:20:06;40.93;;;22.80;;
17658;SDS011;8948;51.534;8.262;2023-04-21T06:25:07;36.77;;;20.90;;
17658;SDS011;8948;51.534;8.262;2023-04-21T06:30:08;40.63;;;20.37;;
17658;SDS011;8948;51.534;8.262;2023-04-21T06:35:09;34.30;;;21.33;;
17658;SDS011;8948;51.534;8.262;2023-04-21T06:40:09;34.50;;;22.13;;
17658;SDS011;8948;51.534;8.262;2023-04-21T06:45:11;34.33;;;21.57;;
17658;SDS011;8948;51.534;8.262;2023-04-21T06:50:12;34.60;;;21.30;;
17658;SDS011;8948;51.534;8.262;2023-04-21T06:55:12;35.43;;;21.40;;
17658;SDS011;8948;51.534;8.262;2023-04-21T07:00:13;33.27;;;21.40;;
17658;SDS011;8948;51.534;8.262;2023-04-21T07:05:14;35.93;;;20.60;;
17658;SDS011;8948;51.534;8.262;2023-04-21T07:10:15;34.07;;;21.03;;
17658;SDS011;8948;51.534;8.262;2023-04-21T07:15:18;32.03;;;20.43;;
17658;SDS011;8948;51.534;8.262;2023-04-21T07:20:19;30.43;;;20.67;;
17658;SDS011;8948;51.534;8.262;2023-04-21T07:25:19;30.93;;;20.50;;
17658;SDS011;8948;51.534;8.262;2023-04-21T07:30:20;31.63;;;19.88;;
17658;SDS011;8948;51.534;8.262;2023-04-21T07:35:21;32.72;;;19.58;;
17658;SDS011;8948;51.534;8.262;2023-04-21T07:40:21;30.00;;;19.52;;
17658;SDS011;8948;51.534;8.262;2023-04-21T07:45:22;30.42;;;19.17;;
17658;SDS011;8948;51.534;8.262;2023-04-21T07:50:24;30.80;;;19.75;;
17658;SDS011;8948;51.534;8.262;2023-04-21T07:55:25;31.52;;;21.00;;
17658;SDS011;8948;51.534;8.262;2023-04-21T08:00:25;34.03;;;20.33;;
17658;SDS011;8948;51.534;8.262;2023-04-21T08:05:26;30.25;;;20.20;;
17658;SDS011;8948;51.534;8.262;2023-04-21T08:10:27;32.33;;;19.23;;
17658;SDS011;8948;51.534;8.262;2023-04-21T08:15:27;30.05;;;19.65;;
17658;SDS011;8948;51.534;8.262;2023-04-21T08:20:28;28.77;;;19.00;;
17658;SDS011;8948;51.534;8.262;2023-04-21T08:25:29;30.52;;;19.70;;
17658;SDS011;8948;51.534;8.262;2023-04-21T08:30:30;28.08;;;17.48;;
17658;SDS011;8948;51.534;8.262;2023-04-21T08:35:30;29.00;;;19.00;;
17658;SDS011;8948;51.534;8.262;2023-04-21T08:40:32;30.45;;;19.48;;
17658;SDS011;8948;51.534;8.262;2023-04-21T08:45:34;28.05;;;18.88;;
17658;SDS011;8948;51.534;8.262;2023-04-21T08:50:35;34.90;;;18.10;;
17658;SDS011;8948;51.534;8.262;2023-04-21T08:55:37;58.42;;;19.80;;
17658;SDS011;8948;51.534;8.262;2023-04-21T09:00:38;26.60;;;16.13;;
17658;SDS011;8948;51.534;8.262;2023-04-21T09:05:40;27.85;;;17.90;;
17658;SDS011;8948;51.534;8.262;2023-04-21T09:10:41;43.53;;;18.40;;
17658;SDS011;8948;51.534;8.262;2023-04-21T09:15:47;29.67;;;17.75;;
17658;SDS011;8948;51.534;8.262;2023-04-21T09:20:51;25.65;;;16.50;;
17658;SDS011;8948;51.534;8.262;2023-04-21T09:26:04;27.35;;;16.25;;
17658;SDS011;8948;51.534;8.262;2023-04-21T09:31:11;26.90;;;16.38;;
17658;SDS011;8948;51.534;8.262;2023-04-21T09:36:17;24.95;;;16.85;;
17658;SDS011;8948;51.534;8.262;2023-04-21T09:41:21;24.83;;;16.52;;
17658;SDS011;8948;51.534;8.262;2023-04-21T09:46:22;27.40;;;15.20;;
17658;SDS011;8948;51.534;8.262;2023-04-21T09:51:23;22.73;;;14.10;;
17658;SDS011;8948;51.534;8.262;2023-04-21T09:56:25;23.90;;;14.05;;
17658;SDS011;8948;51.534;8.262;2023-04-21T10:01:32;23.45;;;15.18;;
17658;SDS011;8948;51.534;8.262;2023-04-21T10:06:34;23.55;;;15.82;;
17658;SDS011;8948;51.534;8.262;2023-04-21T10:11:35;25.55;;;17.23;;
17658;SDS011;8948;51.534;8.262;2023-04-21T10:16:36;24.77;;;16.40;;
17658;SDS011;8948;51.534;8.262;2023-04-21T10:21:37;28.90;;;16.73;;
17658;SDS011;8948;51.534;8.262;2023-04-21T10:26:38;29.30;;;17.23;;
17658;SDS011;8948;51.534;8.262;2023-04-21T10:31:51;24.92;;;17.00;;
17658;SDS011;8948;51.534;8.262;2023-04-21T10:47:12;22.83;;;15.18;;
17658;SDS011;8948;51.534;8.262;2023-04-21T10:52:12;24.08;;;15.32;;
17658;SDS011;8948;51.534;8.262;2023-04-21T10:57:16;29.63;;;16.63;;
17658;SDS011;8948;51.534;8.262;2023-04-21T11:02:18;23.88;;;14.27;;
17658;SDS011;8948;51.534;8.262;2023-04-21T11:07:20;24.10;;;14.98;;
17658;SDS011;8948;51.534;8.262;2023-04-21T11:12:25;24.35;;;13.93;;
17658;SDS011;8948;51.534;8.262;2023-04-21T11:17:30;21.50;;;13.15;;
17658;SDS011;8948;51.534;8.262;2023-04-21T11:22:31;21.40;;;12.77;;
17658;SDS011;8948;51.534;8.262;2023-04-21T11:27:32;26.02;;;12.52;;
17658;SDS011;8948;51.534;8.262;2023-04-21T11:32:33;25.10;;;11.35;;
17658;SDS011;8948;51.534;8.262;2023-04-21T11:37:33;19.80;;;11.27;;
17658;SDS011;8948;51.534;8.262;2023-04-21T11:42:34;18.95;;;11.80;;
17658;SDS011;8948;51.534;8.262;2023-04-21T11:47:35;20.25;;;10.98;;
17658;SDS011;8948;51.534;8.262;2023-04-21T11:52:37;18.08;;;9.85;;
17658;SDS011;8948;51.534;8.262;2023-04-21T11:57:38;16.13;;;9.65;;
17658;SDS011;8948;51.534;8.262;2023-04-21T12:02:40;15.75;;;9.45;;
17658;SDS011;8948;51.534;8.262;2023-04-21T12:07:45;15.25;;;9.65;;
17658;SDS011;8948;51.534;8.262;2023-04-21T12:12:47;14.15;;;9.32;;
17658;SDS011;8948;51.534;8.262;2023-04-21T12:17:48;20.52;;;9.43;;
17658;SDS011;8948;51.534;8.262;2023-04-21T12:22:50;15.70;;;9.00;;
17658;SDS011;8948;51.534;8.262;2023-04-21T12:27:53;14.98;;;7.50;;
17658;SDS011;8948;51.534;8.262;2023-04-21T12:32:57;11.90;;;7.85;;
17658;SDS011;8948;51.534;8.262;2023-04-21T12:37:58;16.15;;;7.13;;
17658;SDS011;8948;51.534;8.262;2023-04-21T12:42:58;14.25;;;7.70;;
17658;SDS011;8948;51.534;8.262;2023-04-21T12:47:59;13.68;;;7.18;;
17658;SDS011;8948;51.534;8.262;2023-04-21T12:53:00;15.18;;;7.32;;
17658;SDS011;8948;51.534;8.262;2023-04-21T12:58:01;14.27;;;8.13;;
17658;SDS011;8948;51.534;8.262;2023-04-21T13:03:01;20.20;;;7.80;;
17658;SDS011;8948;51.534;8.262;2023-04-21T13:08:03;11.50;;;7.53;;
17658;SDS011;8948;51.534;8.262;2023-04-21T13:13:04;15.98;;;8.32;;
17658;SDS011;8948;51.534;8.262;2023-04-21T13:18:04;15.07;;;7.40;;
17658;SDS011;8948;51.534;8.262;2023-04-21T13:23:05;18.38;;;8.32;;
17658;SDS011;8948;51.534;8.262;2023-04-21T13:28:07;15.38;;;7.95;;
17658;SDS011;8948;51.534;8.262;2023-04-21T13:33:08;12.15;;;8.00;;
17658;SDS011;8948;51.534;8.262;2023-04-21T13:38:10;15.80;;;7.95;;
17658;SDS011;8948;51.534;8.262;2023-04-21T13:43:11;13.95;;;8.07;;
17658;SDS011;8948;51.534;8.262;2023-04-21T13:48:11;14.55;;;7.30;;
17658;SDS011;8948;51.534;8.262;2023-04-21T13:53:12;13.98;;;7.55;;
17658;SDS011;8948;51.534;8.262;2023-04-21T13:58:15;14.23;;;7.82;;
17658;SDS011;8948;51.534;8.262;2023-04-21T14:03:16;13.07;;;7.32;;
17658;SDS011;8948;51.534;8.262;2023-04-21T14:08:18;13.57;;;7.20;;
17658;SDS011;8948;51.534;8.262;2023-04-21T14:13:18;10.95;;;7.40;;
17658;SDS011;8948;51.534;8.262;2023-04-21T14:18:19;11.88;;;7.90;;
17658;SDS011;8948;51.534;8.262;2023-04-21T14:23:19;14.27;;;8.05;;
17658;SDS011;8948;51.534;8.262;2023-04-21T14:28:20;13.93;;;7.45;;
17658;SDS011;8948;51.534;8.262;2023-04-21T14:33:21;17.55;;;8.02;;
17658;SDS011;8948;51.534;8.262;2023-04-21T14:38:21;18.33;;;7.50;;
17658;SDS011;8948;51.534;8.262;2023-04-21T14:43:22;13.13;;;7.65;;
17658;SDS011;8948;51.534;8.262;2023-04-21T14:48:23;11.75;;;7.90;;
17658;SDS011;8948;51.534;8.262;2023-04-21T14:53:23;13.05;;;7.28;;
17658;SDS011;8948;51.534;8.262;2023-04-21T14:58:24;12.55;;;7.18;;
17658;SDS011;8948;51.534;8.262;2023-04-21T15:03:25;11.93;;;6.82;;
17658;SDS011;8948;51.534;8.262;2023-04-21T15:08:25;12.70;;;6.57;;
17658;SDS011;8948;51.534;8.262;2023-04-21T15:13:26;17.05;;;7.50;;
17658;SDS011;8948;51.534;8.262;2023-04-21T15:18:27;13.57;;;7.18;;
17658;SDS011;8948;51.534;8.262;2023-04-21T15:23:27;13.85;;;7.10;;
17658;SDS011;8948;51.534;8.262;2023-04-21T15:28:28;17.65;;;7.45;;
17658;SDS011;8948;51.534;8.262;2023-04-21T15:33:29;14.55;;;7.00;;
17658;SDS011;8948;51.534;8.262;2023-04-21T15:38:29;72.60;;;9.82;;
17658;SDS011;8948;51.534;8.262;2023-04-21T15:43:30;14.02;;;6.88;;
17658;SDS011;8948;51.534;8.262;2023-04-21T15:48:31;10.82;;;6.70;;
17658;SDS011;8948;51.534;8.262;2023-04-21T15:53:32;14.43;;;6.53;;
17658;SDS011;8948;51.534;8.262;2023-04-21T15:58:34;12.77;;;6.57;;
17658;SDS011;8948;51.534;8.262;2023-04-21T16:03:35;12.82;;;6.53;;
17658;SDS011;8948;51.534;8.262;2023-04-21T16:08:35;12.50;;;7.07;;
17658;SDS011;8948;51.534;8.262;2023-04-21T16:13:36;11.40;;;6.38;;
17658;SDS011;8948;51.534;8.262;2023-04-21T16:18:36;11.77;;;6.80;;
17658;SDS011;8948;51.534;8.262;2023-04-21T16:23:37;12.48;;;6.90;;
17658;SDS011;8948;51.534;8.262;2023-04-21T16:28:38;10.57;;;6.07;;
17658;SDS011;8948;51.534;8.262;2023-04-21T16:33:38;17.08;;;8.88;;
17658;SDS011;8948;51.534;8.262;2023-04-21T16:38:39;23.33;;;9.70;;
17658;SDS011;8948;51.534;8.262;2023-04-21T16:43:40;15.88;;;6.95;;
17658;SDS011;8948;51.534;8.262;2023-04-21T16:48:42;11.48;;;5.47;;
17658;SDS011;8948;51.534;8.262;2023-04-21T16:53:42;12.77;;;6.45;;
17658;SDS011;8948;51.534;8.262;2023-04-21T16:58:43;15.57;;;7.47;;
17658;SDS011;8948;51.534;8.262;2023-04-21T17:03:44;13.30;;;6.47;;
17658;SDS011;8948;51.534;8.262;2023-04-21T17:08:44;11.50;;;6.20;;
17658;SDS011;8948;51.534;8.262;2023-04-21T17:13:46;15.00;;;5.57;;
17658;SDS011;8948;51.534;8.262;2023-04-21T17:18:47;12.70;;;4.72;;
17658;SDS011;8948;51.534;8.262;2023-04-21T17:23:48;10.48;;;4.65;;
17658;SDS011;8948;51.534;8.262;2023-04-21T17:28:49;11.68;;;5.03;;
17658;SDS011;8948;51.534;8.262;2023-04-21T17:33:50;9.65;;;5.28;;
17658;SDS011;8948;51.534;8.262;2023-04-21T17:38:53;10.27;;;4.88;;
17658;SDS011;8948;51.534;8.262;2023-04-21T17:43:57;8.18;;;5.28;;
17658;SDS011;8948;51.534;8.262;2023-04-21T17:48:59;10.70;;;5.55;;
17658;SDS011;8948;51.534;8.262;2023-04-21T17:53:59;9.77;;;5.57;;
17658;SDS011;8948;51.534;8.262;2023-04-21T17:59:00;10.32;;;5.10;;
17658;SDS011;8948;51.534;8.262;2023-04-21T18:04:00;15.77;;;6.15;;
17658;SDS011;8948;51.534;8.262;2023-04-21T18:09:03;10.52;;;5.65;;
17658;SDS011;8948;51.534;8.262;2023-04-21T18:14:03;9.95;;;5.80;;
17658;SDS011;8948;51.534;8.262;2023-04-21T18:19:05;9.90;;;5.63;;
17658;SDS011;8948;51.534;8.262;2023-04-21T18:24:05;9.88;;;5.82;;
17658;SDS011;8948;51.534;8.262;2023-04-21T18:29:06;12.45;;;6.65;;
17658;SDS011;8948;51.534;8.262;2023-04-21T18:34:07;20.42;;;9.82;;
17658;SDS011;8948;51.534;8.262;2023-04-21T18:39:09;7.95;;;4.20;;
17658;SDS011;8948;51.534;8.262;2023-04-21T18:44:10;12.82;;;5.78;;
17658;SDS011;8948;51.534;8.262;2023-04-21T18:49:11;129.30;;;40.97;;
17658;SDS011;8948;51.534;8.262;2023-04-21T18:54:11;35.58;;;12.57;;
17658;SDS011;8948;51.534;8.262;2023-04-21T18:59:12;25.75;;;9.85;;
17658;SDS011;8948;51.534;8.262;2023-04-21T19:04:13;21.00;;;9.05;;
17658;SDS011;8948;51.534;8.262;2023-04-21T19:09:13;7.10;;;3.70;;
17658;SDS011;8948;51.534;8.262;2023-04-21T19:14:14;6.85;;;5.05;;
17658;SDS011;8948;51.534;8.262;2023-04-21T19:19:15;9.18;;;4.97;;
17658;SDS011;8948;51.534;8.262;2023-04-21T19:24:15;18.77;;;10.38;;
17658;SDS011;8948;51.534;8.262;2023-04-21T19:29:16;9.73;;;5.05;;
17658;SDS011;8948;51.534;8.262;2023-04-21T19:34:16;20.00;;;12.88;;
17658;SDS011;8948;51.534;8.262;2023-04-21T19:39:17;10.73;;;6.45;;
17658;SDS011;8948;51.534;8.262;2023-04-21T19:44:18;16.88;;;9.35;;
17658;SDS011;8948;51.534;8.262;2023-04-21T19:49:18;9.25;;;5.90;;
17658;SDS011;8948;51.534;8.262;2023-04-21T19:54:19;9.35;;;4.60;;
17658;SDS011;8948;51.534;8.262;2023-04-21T19:59:19;6.78;;;5.22;;
17658;SDS011;8948;51.534;8.262;2023-04-21T20:04:20;4.53;;;3.35;;
17658;SDS011;8948;51.534;8.262;2023-04-21T20:09:21;6.55;;;3.08;;
17658;SDS011;8948;51.534;8.262;2023-04-21T20:14:21;6.28;;;4.70;;
17658;SDS011;8948;51.534;8.262;2023-04-21T20:19:22;9.15;;;5.95;;
17658;SDS011;8948;51.534;8.262;2023-04-21T20:24:25;5.05;;;4.15;;
17658;SDS011;8948;51.534;8.262;2023-04-21T20:29:26;3.08;;;2.40;;
17658;SDS011;8948;51.534;8.262;2023-04-21T20:34:27;3.72;;;2.45;;
17658;SDS011;8948;51.534;8.262;2023-04-21T20:39:27;2.20;;;1.77;;
17658;SDS011;8948;51.534;8.262;2023-04-21T20:44:28;5.05;;;2.25;;
17658;SDS011;8948;51.534;8.262;2023-04-21T20:49:30;6.50;;;3.20;;
17658;SDS011;8948;51.534;8.262;2023-04-21T20:54:30;7.82;;;3.35;;
17658;SDS011;8948;51.534;8.262;2023-04-21T20:59:33;6.55;;;2.40;;
17658;SDS011;8948;51.534;8.262;2023-04-21T21:04:34;6.35;;;3.03;;
17658;SDS011;8948;51.534;8.262;2023-04-21T21:09:34;4.47;;;3.20;;
17658;SDS011;8948;51.534;8.262;2023-04-21T21:14:35;6.57;;;3.25;;
17658;SDS011;8948;51.534;8.262;2023-04-21T21:19:35;5.25;;;3.20;;
17658;SDS011;8948;51.534;8.262;2023-04-21T21:24:36;4.90;;;3.00;;
17658;SDS011;8948;51.534;8.262;2023-04-21T21:29:36;5.95;;;3.10;;
17658;SDS011;8948;51.534;8.262;2023-04-21T21:34:37;2.92;;;2.50;;
17658;SDS011;8948;51.534;8.262;2023-04-21T21:39:37;5.95;;;2.67;;
17658;SDS011;8948;51.534;8.262;2023-04-21T21:44:38;3.50;;;2.60;;
17658;SDS011;8948;51.534;8.262;2023-04-21T21:49:39;4.35;;;2.97;;
17658;SDS011;8948;51.534;8.262;2023-04-21T21:54:39;5.63;;;3.15;;
17658;SDS011;8948;51.534;8.262;2023-04-21T21:59:40;5.57;;;3.00;;
17658;SDS011;8948;51.534;8.262;2023-04-21T22:04:40;4.53;;;3.25;;
17658;SDS011;8948;51.534;8.262;2023-04-21T22:09:41;3.97;;;2.70;;
17658;SDS011;8948;51.534;8.262;2023-04-21T22:14:42;4.03;;;3.03;;
17658;SDS011;8948;51.534;8.262;2023-04-21T22:19:44;4.45;;;3.40;;
17658;SDS011;8948;51.534;8.262;2023-04-21T22:24:45;3.70;;;3.17;;
17658;SDS011;8948;51.534;8.262;2023-04-21T22:29:46;3.72;;;3.15;;
17658;SDS011;8948;51.534;8.262;2023-04-21T22:34:47;4.47;;;3.20;;
17658;SDS011;8948;51.534;8.262;2023-04-21T22:39:47;5.07;;;3.53;;
17658;SDS011;8948;51.534;8.262;2023-04-21T22:44:48;7.30;;;3.50;;
17658;SDS011;8948;51.534;8.262;2023-04-21T22:49:48;7.53;;;3.95;;
17658;SDS011;8948;51.534;8.262;2023-04-21T22:54:50;4.70;;;4.05;;
17658;SDS011;8948;51.534;8.262;2023-04-21T22:59:50;6.18;;;4.40;;
17658;SDS011;8948;51.534;8.262;2023-04-21T23:04:51;5.65;;;4.15;;
17658;SDS011;8948;51.534;8.262;2023-04-21T23:09:52;6.45;;;4.05;;
17658;SDS011;8948;51.534;8.262;2023-04-21T23:14:53;6.95;;;4.43;;
17658;SDS011;8948;51.534;8.262;2023-04-21T23:19:54;7.72;;;4.28;;
17658;SDS011;8948;51.534;8.262;2023-04-21T23:24:54;9.57;;;4.70;;
17658;SDS011;8948;51.534;8.262;2023-04-21T23:29:55;8.70;;;5.32;;
17658;SDS011;8948;51.534;8.262;2023-04-21T23:34:55;10.30;;;5.15;;
17658;SDS011;8948;51.534;8.262;2023-04-21T23:39:56;6.88;;;5.00;;
17658;SDS011;8948;51.534;8.262;2023-04-21T23:44:56;6.93;;;4.90;;
17658;SDS011;8948;51.534;8.262;2023-04-21T23:49:57;7.72;;;5.20;;
17658;SDS011;8948;51.534;8.262;2023-04-21T23:54:58;7.45;;;4.88;;
17658;SDS011;8948;51.534;8.262;2023-04-21T23:59:58;6.25;;;4.95;;
